Time;durP1;ratioP1;P1;durP2;ratioP2;P2;SDS_P1;SDS_P2;PMS_P1;PMS_P2;Temp;Humidity;BMP_temperature;BMP_pressure;BME280_temperature;BME280_humidity;BME280_pressure;Samples;Min_cycle;Max_cycle;Signal;HPM_P1;HPM_P2
2021/12/16 00:03:36;;;;;;;74.40;12.13;;;;;;;;;;5073561;28;20197;-66
2021/12/16 00:06:45;;;;;;;72.35;11.30;;;;;;;;;;5074002;28;20212;-65
2021/12/16 00:09:07;;;;;;;75.45;11.38;;;;;;;;;;5073406;28;20228;-65
2021/12/16 00:33:35;;;;;;;72.18;11.95;;;;;;;;;;5072074;28;20208;-64
2021/12/16 00:36:05;;;;;;;75.47;12.40;;;;;;;;;;5073764;28;20217;-64
2021/12/16 00:38:32;;;;;;;70.93;12.18;;;;;;;;;;5073813;28;20213;-64
2021/12/16 00:41:00;;;;;;;72.28;11.70;;;;;;;;;;5073185;28;20235;-65
2021/12/16 00:43:34;;;;;;;73.55;12.35;;;;;;;;;;5073804;28;20686;-64
2021/12/16 00:46:14;;;;;;;75.88;13.60;;;;;;;;;;5073302;28;20209;-64
2021/12/16 00:49:04;;;;;;;72.25;11.70;;;;;;;;;;5072257;28;20697;-64
2021/12/16 00:54:17;;;;;;;73.35;12.80;;;;;;;;;;5072962;28;20196;-64
2021/12/16 00:56:46;;;;;;;73.45;11.48;;;;;;;;;;5073191;28;20296;-64
2021/12/16 00:59:15;;;;;;;71.25;11.40;;;;;;;;;;5071813;28;20627;-64
2021/12/16 01:01:51;;;;;;;76.60;12.57;;;;;;;;;;5073503;28;20221;-64
2021/12/16 01:04:53;;;;;;;72.25;11.40;;;;;;;;;;5072559;28;20215;-64
2021/12/16 01:07:51;;;;;;;70.65;11.70;;;;;;;;;;5071661;28;20200;-65
2021/12/16 01:35:16;;;;;;;73.13;12.07;;;;;;;;;;5071450;28;20204;-64
2021/12/16 01:38:18;;;;;;;71.22;10.50;;;;;;;;;;5071072;28;20299;-64
2021/12/16 01:49:24;;;;;;;70.85;10.50;;;;;;;;;;5060407;28;20288;-65
2021/12/16 01:52:04;;;;;;;71.30;10.05;;;;;;;;;;5071432;28;20201;-64
2021/12/16 01:54:52;;;;;;;70.25;9.50;;;;;;;;;;5071474;28;20212;-64
2021/12/16 01:57:26;;;;;;;68.13;9.80;;;;;;;;;;5071031;28;20679;-64
2021/12/16 02:00:00;;;;;;;71.18;9.70;;;;;;;;;;5070529;28;20462;-65
2021/12/16 02:02:37;;;;;;;69.30;9.70;;;;;;;;;;5070402;28;20229;-65
2021/12/16 02:05:22;;;;;;;69.00;9.80;;;;;;;;;;5071381;28;20212;-65
2021/12/16 02:08:11;;;;;;;72.90;10.45;;;;;;;;;;5071368;28;20575;-65
2021/12/16 02:10:43;;;;;;;68.20;9.23;;;;;;;;;;5071801;28;20271;-64
2021/12/16 02:13:33;;;;;;;73.53;9.43;;;;;;;;;;5071248;28;20213;-65
2021/12/16 02:30:00;;;;;;;68.20;8.35;;;;;;;;;;5071109;28;20266;-64
2021/12/16 02:32:41;;;;;;;64.70;6.88;;;;;;;;;;5071346;28;20208;-64
2021/12/16 02:35:26;;;;;;;67.65;7.72;;;;;;;;;;5071221;28;20317;-64
2021/12/16 02:37:54;;;;;;;68.70;8.95;;;;;;;;;;5070774;28;20223;-65
2021/12/16 02:40:22;;;;;;;69.65;9.88;;;;;;;;;;5070993;28;20661;-65
2021/12/16 02:42:57;;;;;;;67.15;8.07;;;;;;;;;;5070960;28;20232;-64
2021/12/16 02:48:29;;;;;;;68.72;8.75;;;;;;;;;;5073511;28;20274;-64
2021/12/16 02:50:57;;;;;;;70.63;8.88;;;;;;;;;;5074687;28;20307;-64
2021/12/16 02:53:25;;;;;;;70.63;10.73;;;;;;;;;;5074681;28;20300;-64
2021/12/16 02:55:53;;;;;;;70.53;10.55;;;;;;;;;;5074451;28;20212;-65
2021/12/16 02:58:20;;;;;;;66.95;8.63;;;;;;;;;;5074100;28;20668;-64
2021/12/16 03:00:49;;;;;;;68.50;9.25;;;;;;;;;;5074259;28;20312;-64
2021/12/16 03:03:17;;;;;;;68.72;9.55;;;;;;;;;;5074575;28;20288;-64
2021/12/16 03:05:44;;;;;;;77.05;9.80;;;;;;;;;;5074429;28;20637;-65
2021/12/16 03:08:11;;;;;;;67.70;8.93;;;;;;;;;;5074015;28;20295;-64
2021/12/16 03:11:03;;;;;;;67.82;9.07;;;;;;;;;;5074111;28;20311;-64
2021/12/16 03:13:34;;;;;;;68.03;8.75;;;;;;;;;;5074455;28;20325;-63
2021/12/16 03:16:12;;;;;;;74.13;9.90;;;;;;;;;;5074109;28;20688;-64
2021/12/16 03:18:47;;;;;;;67.90;9.07;;;;;;;;;;5073908;28;20388;-64
2021/12/16 03:21:20;;;;;;;66.80;8.80;;;;;;;;;;5073855;28;20238;-64
2021/12/16 03:27:07;;;;;;;66.20;8.60;;;;;;;;;;5073809;28;20209;-63
2021/12/16 03:30:01;;;;;;;66.72;8.57;;;;;;;;;;5073282;28;20248;-65
2021/12/16 03:32:49;;;;;;;68.88;9.38;;;;;;;;;;5073797;28;20334;-65
2021/12/16 03:35:31;;;;;;;68.90;8.75;;;;;;;;;;5073830;28;20216;-66
2021/12/16 03:38:01;;;;;;;66.40;7.82;;;;;;;;;;5073418;28;20212;-64
2021/12/16 03:40:29;;;;;;;70.93;8.75;;;;;;;;;;5073633;28;20221;-64
2021/12/16 03:43:00;;;;;;;69.30;9.95;;;;;;;;;;5073707;28;20228;-65
2021/12/16 03:48:18;;;;;;;64.88;8.57;;;;;;;;;;5073332;28;20196;-63
2021/12/16 03:50:45;;;;;;;71.13;11.73;;;;;;;;;;5073632;28;20239;-64
2021/12/16 03:53:16;;;;;;;70.65;8.88;;;;;;;;;;5073615;28;20202;-65
2021/12/16 03:55:44;;;;;;;70.63;11.05;;;;;;;;;;5073517;28;20209;-64
2021/12/16 03:58:12;;;;;;;70.68;10.27;;;;;;;;;;5073144;28;20594;-64
2021/12/16 04:00:43;;;;;;;70.50;10.68;;;;;;;;;;5073197;28;20231;-64
2021/12/16 04:03:10;;;;;;;72.80;11.15;;;;;;;;;;5073166;28;20700;-64
2021/12/16 04:05:38;;;;;;;71.03;10.63;;;;;;;;;;5073301;28;20205;-65
2021/12/16 04:08:06;;;;;;;69.15;9.90;;;;;;;;;;5072885;28;20702;-64
2021/12/16 04:10:35;;;;;;;67.82;9.07;;;;;;;;;;5073101;28;20221;-64
2021/12/16 04:13:04;;;;;;;68.90;10.23;;;;;;;;;;5073049;28;20196;-65
2021/12/16 04:15:33;;;;;;;71.95;11.23;;;;;;;;;;5072763;28;20295;-65
2021/12/16 04:18:01;;;;;;;72.55;11.18;;;;;;;;;;5072584;28;20201;-65
2021/12/16 04:20:28;;;;;;;69.03;9.77;;;;;;;;;;5073119;28;20221;-65
2021/12/16 04:22:56;;;;;;;72.88;11.40;;;;;;;;;;5072743;28;20225;-65
2021/12/16 04:25:25;;;;;;;71.65;11.35;;;;;;;;;;5072787;28;20645;-64
2021/12/16 04:27:54;;;;;;;72.90;11.60;;;;;;;;;;5072258;28;20205;-64
2021/12/16 04:30:21;;;;;;;76.70;12.88;;;;;;;;;;5072823;28;20322;-64
2021/12/16 04:32:50;;;;;;;73.05;13.63;;;;;;;;;;5072831;28;20207;-63
2021/12/16 04:35:18;;;;;;;72.00;11.30;;;;;;;;;;5072527;28;20295;-64
2021/12/16 04:37:45;;;;;;;77.25;13.57;;;;;;;;;;5072186;28;20209;-63
2021/12/16 04:40:13;;;;;;;74.57;13.23;;;;;;;;;;5072573;28;20600;-64
2021/12/16 04:42:42;;;;;;;74.60;12.77;;;;;;;;;;5072329;28;20315;-64
2021/12/16 04:45:10;;;;;;;74.85;11.70;;;;;;;;;;5072741;28;20201;-64
2021/12/16 04:47:38;;;;;;;74.32;13.45;;;;;;;;;;5071976;28;20297;-64
2021/12/16 04:50:07;;;;;;;75.70;13.57;;;;;;;;;;5072362;28;20316;-63
2021/12/16 04:52:35;;;;;;;71.68;12.15;;;;;;;;;;5072359;28;20208;-65
2021/12/16 04:55:02;;;;;;;81.28;13.98;;;;;;;;;;5072150;28;20207;-64
2021/12/16 04:57:29;;;;;;;80.65;15.73;;;;;;;;;;5072024;28;20205;-64
2021/12/16 04:59:56;;;;;;;82.85;14.55;;;;;;;;;;5072222;28;20670;-64
2021/12/16 05:02:25;;;;;;;76.53;14.18;;;;;;;;;;5072207;28;20229;-64
2021/12/16 05:04:52;;;;;;;76.85;13.80;;;;;;;;;;5072151;28;20291;-64
2021/12/16 05:07:22;;;;;;;78.85;14.32;;;;;;;;;;5071891;28;20212;-65
2021/12/16 05:12:35;;;;;;;78.72;13.55;;;;;;;;;;5070039;28;20614;-66
2021/12/16 05:15:02;;;;;;;77.78;14.10;;;;;;;;;;5072046;28;20213;-64
2021/12/16 05:17:34;;;;;;;78.70;13.57;;;;;;;;;;5071676;28;20296;-64
2021/12/16 05:20:07;;;;;;;76.57;14.55;;;;;;;;;;5071741;28;20225;-64
2021/12/16 05:25:32;;;;;;;79.13;13.10;;;;;;;;;;5071770;28;20200;-65
2021/12/16 05:27:59;;;;;;;75.95;13.98;;;;;;;;;;5071779;28;20255;-65
2021/12/16 05:30:27;;;;;;;74.50;13.00;;;;;;;;;;5071702;28;20604;-65
2021/12/16 05:32:54;;;;;;;80.43;15.02;;;;;;;;;;5071952;28;20203;-64
2021/12/16 05:35:23;;;;;;;79.35;14.27;;;;;;;;;;5071708;28;20776;-64
2021/12/16 05:37:52;;;;;;;77.35;13.85;;;;;;;;;;5071452;28;20261;-65
2021/12/16 05:40:23;;;;;;;75.05;11.98;;;;;;;;;;5071973;28;20224;-65
2021/12/16 05:42:51;;;;;;;74.93;12.25;;;;;;;;;;5071422;28;20221;-65
2021/12/16 05:45:19;;;;;;;74.93;11.30;;;;;;;;;;5071827;28;20624;-65
2021/12/16 05:47:46;;;;;;;74.13;11.90;;;;;;;;;;5071540;28;20714;-66
2021/12/16 05:50:13;;;;;;;73.80;12.57;;;;;;;;;;5071694;28;20232;-65
2021/12/16 05:52:41;;;;;;;76.18;12.93;;;;;;;;;;5071571;28;20215;-65
2021/12/16 05:55:11;;;;;;;72.55;10.95;;;;;;;;;;5071452;28;20255;-66
2021/12/16 05:57:39;;;;;;;77.88;13.02;;;;;;;;;;5071068;28;20208;-65
2021/12/16 06:00:08;;;;;;;74.18;13.30;;;;;;;;;;5071653;28;20225;-65
2021/12/16 06:02:35;;;;;;;76.50;12.85;;;;;;;;;;5071393;28;20735;-64
2021/12/16 06:05:02;;;;;;;76.45;13.15;;;;;;;;;;5071500;28;20299;-65
2021/12/16 06:07:29;;;;;;;77.00;12.57;;;;;;;;;;5071261;28;20235;-65
2021/12/16 06:09:56;;;;;;;74.78;12.23;;;;;;;;;;5071226;28;20225;-65
2021/12/16 06:12:26;;;;;;;76.70;12.50;;;;;;;;;;5071343;28;20674;-64
2021/12/16 06:15:11;;;;;;;75.90;11.63;;;;;;;;;;5071453;28;20208;-64
2021/12/16 06:28:47;;;;;;;71.55;11.27;;;;;;;;;;5074716;28;20204;-65
2021/12/16 06:31:15;;;;;;;74.50;11.48;;;;;;;;;;5074873;28;20224;-64
2021/12/16 06:33:42;;;;;;;72.63;10.95;;;;;;;;;;5075116;28;20205;-64
2021/12/16 06:36:09;;;;;;;72.00;10.90;;;;;;;;;;5074644;28;20308;-65
2021/12/16 06:38:36;;;;;;;73.28;11.63;;;;;;;;;;5074602;28;20206;-64
2021/12/16 06:41:04;;;;;;;72.85;10.82;;;;;;;;;;5074746;28;20311;-65
2021/12/16 06:43:32;;;;;;;72.53;11.57;;;;;;;;;;5074598;28;20225;-65
2021/12/16 06:46:03;;;;;;;74.10;11.70;;;;;;;;;;5075065;28;20258;-65
2021/12/16 06:48:34;;;;;;;75.63;13.40;;;;;;;;;;5074643;28;20208;-65
2021/12/16 06:51:06;;;;;;;72.40;10.93;;;;;;;;;;5074468;28;20225;-64
2021/12/16 06:53:45;;;;;;;72.70;11.30;;;;;;;;;;5074603;28;20201;-65
2021/12/16 06:56:18;;;;;;;70.65;11.27;;;;;;;;;;5074667;28;20227;-65
2021/12/16 06:58:49;;;;;;;70.95;11.05;;;;;;;;;;5074323;28;20212;-65
2021/12/16 07:01:31;;;;;;;73.82;11.18;;;;;;;;;;5074359;28;20225;-66
2021/12/16 07:03:58;;;;;;;72.22;11.23;;;;;;;;;;5074326;28;20232;-66
2021/12/16 07:06:26;;;;;;;72.05;11.20;;;;;;;;;;5074244;28;20207;-65
2021/12/16 07:08:56;;;;;;;71.40;11.82;;;;;;;;;;5074230;28;20591;-65
2021/12/16 07:11:24;;;;;;;71.55;11.43;;;;;;;;;;5074230;28;20209;-65
2021/12/16 07:13:58;;;;;;;72.80;11.43;;;;;;;;;;5062658;28;20206;-64
2021/12/16 07:16:27;;;;;;;72.07;11.85;;;;;;;;;;5053597;28;20568;-65
2021/12/16 07:18:54;;;;;;;72.45;11.20;;;;;;;;;;5053662;28;20201;-65
2021/12/16 07:21:23;;;;;;;70.75;11.70;;;;;;;;;;5052686;28;20202;-64
2021/12/16 07:23:50;;;;;;;69.38;11.18;;;;;;;;;;5053506;28;20287;-64
2021/12/16 07:26:17;;;;;;;75.25;11.18;;;;;;;;;;5053565;28;20591;-65
2021/12/16 07:28:44;;;;;;;72.30;11.65;;;;;;;;;;5053258;28;20206;-64
2021/12/16 07:31:11;;;;;;;73.28;11.57;;;;;;;;;;5063744;28;20239;-65
2021/12/16 07:33:40;;;;;;;73.93;11.82;;;;;;;;;;5073239;28;20210;-66
2021/12/16 07:36:07;;;;;;;74.70;12.55;;;;;;;;;;5072922;28;20311;-66
2021/12/16 07:38:34;;;;;;;80.57;12.63;;;;;;;;;;5073651;28;20205;-65
2021/12/16 07:41:02;;;;;;;73.38;12.68;;;;;;;;;;5073678;28;20310;-65
2021/12/16 07:43:54;;;;;;;77.13;11.98;;;;;;;;;;5073442;28;20312;-66
2021/12/16 07:46:21;;;;;;;74.45;11.82;;;;;;;;;;5073452;28;20240;-65
2021/12/16 07:48:50;;;;;;;72.57;11.75;;;;;;;;;;5073452;28;20201;-65
2021/12/16 07:51:17;;;;;;;75.45;11.82;;;;;;;;;;5073660;28;20239;-65
2021/12/16 07:53:45;;;;;;;82.68;10.75;;;;;;;;;;5071665;28;20211;-65
2021/12/16 07:56:12;;;;;;;72.93;11.95;;;;;;;;;;5073269;28;20211;-65
2021/12/16 07:58:39;;;;;;;73.35;12.25;;;;;;;;;;5073464;28;20200;-65
2021/12/16 08:01:06;;;;;;;72.55;11.43;;;;;;;;;;5073801;28;20312;-65
2021/12/16 08:03:36;;;;;;;78.15;12.05;;;;;;;;;;5073335;28;20225;-65
2021/12/16 08:06:06;;;;;;;74.15;11.30;;;;;;;;;;5073255;28;20205;-65
2021/12/16 08:08:34;;;;;;;74.53;12.15;;;;;;;;;;5072769;28;20211;-66
2021/12/16 08:11:01;;;;;;;76.40;12.60;;;;;;;;;;5073304;28;20227;-65
2021/12/16 08:13:28;;;;;;;75.70;12.63;;;;;;;;;;5073064;28;20209;-65
2021/12/16 08:15:56;;;;;;;78.82;12.35;;;;;;;;;;5072971;28;20240;-65
2021/12/16 08:18:23;;;;;;;73.97;12.30;;;;;;;;;;5072633;28;20204;-65
2021/12/16 08:20:50;;;;;;;74.93;11.95;;;;;;;;;;5073055;28;20312;-66
2021/12/16 08:23:18;;;;;;;77.20;11.95;;;;;;;;;;5072859;28;20231;-65
2021/12/16 08:25:46;;;;;;;78.82;13.63;;;;;;;;;;5060083;28;20641;-64
2021/12/16 08:28:13;;;;;;;71.30;11.20;;;;;;;;;;5053039;28;20210;-65
2021/12/16 08:30:42;;;;;;;73.32;11.82;;;;;;;;;;5052757;28;20316;-65
2021/12/16 08:33:11;;;;;;;72.88;11.27;;;;;;;;;;5052982;28;20202;-65
2021/12/16 08:35:40;;;;;;;72.38;11.10;;;;;;;;;;5052530;28;20757;-65
2021/12/16 08:38:08;;;;;;;72.35;11.00;;;;;;;;;;5053035;28;20689;-65
2021/12/16 08:40:39;;;;;;;71.25;11.88;;;;;;;;;;5052737;28;20225;-65
2021/12/16 08:43:06;;;;;;;79.97;11.52;;;;;;;;;;5052675;28;20221;-65
2021/12/16 08:45:34;;;;;;;71.90;10.95;;;;;;;;;;5051819;28;20637;-65
2021/12/16 08:48:02;;;;;;;71.85;10.23;;;;;;;;;;5052225;28;20292;-65
2021/12/16 08:50:31;;;;;;;71.05;10.68;;;;;;;;;;5051821;28;20228;-65
2021/12/16 08:52:59;;;;;;;70.43;9.73;;;;;;;;;;5052540;28;20315;-65
2021/12/16 08:55:26;;;;;;;69.25;11.15;;;;;;;;;;5051931;28;20248;-64
2021/12/16 08:57:56;;;;;;;73.35;11.27;;;;;;;;;;5064758;28;20215;-65
2021/12/16 09:00:24;;;;;;;70.07;10.30;;;;;;;;;;5072083;28;20236;-65
2021/12/16 09:02:51;;;;;;;69.88;9.90;;;;;;;;;;5071948;28;20637;-65
2021/12/16 09:05:19;;;;;;;71.13;10.60;;;;;;;;;;5072279;28;20304;-65
2021/12/16 09:07:48;;;;;;;69.70;10.60;;;;;;;;;;5071716;28;20211;-64
2021/12/16 09:10:20;;;;;;;70.65;10.93;;;;;;;;;;5072128;28;20228;-66
2021/12/16 09:12:54;;;;;;;71.45;10.57;;;;;;;;;;5072130;28;20576;-66
2021/12/16 09:15:24;;;;;;;70.50;10.40;;;;;;;;;;5071438;28;20292;-66
2021/12/16 09:17:52;;;;;;;70.63;10.98;;;;;;;;;;5072154;28;20700;-65
2021/12/16 09:20:19;;;;;;;80.60;14.10;;;;;;;;;;5072130;28;20235;-65
2021/12/16 09:22:46;;;;;;;72.05;11.00;;;;;;;;;;5071870;28;20229;-65
2021/12/16 09:25:14;;;;;;;76.32;11.70;;;;;;;;;;5071976;28;20211;-65
2021/12/16 09:27:42;;;;;;;77.38;13.50;;;;;;;;;;5068512;28;20215;-65
2021/12/16 09:30:10;;;;;;;74.40;11.35;;;;;;;;;;5051375;28;20234;-64
2021/12/16 09:32:39;;;;;;;74.20;11.55;;;;;;;;;;5052063;28;20224;-65
2021/12/16 09:35:08;;;;;;;84.03;20.08;;;;;;;;;;5051583;28;20209;-65
2021/12/16 09:37:35;;;;;;;86.45;20.35;;;;;;;;;;5051249;28;20214;-65
2021/12/16 09:40:02;;;;;;;78.30;13.55;;;;;;;;;;5051682;28;20236;-66
2021/12/16 09:42:30;;;;;;;71.68;10.70;;;;;;;;;;5051539;28;20202;-64
2021/12/16 09:44:58;;;;;;;72.78;12.60;;;;;;;;;;5051503;28;20300;-65
2021/12/16 09:47:27;;;;;;;70.40;10.63;;;;;;;;;;5051534;28;20582;-65
2021/12/16 09:49:55;;;;;;;72.88;12.80;;;;;;;;;;5051326;28;20230;-65
2021/12/16 09:52:22;;;;;;;71.68;10.75;;;;;;;;;;5051475;28;20205;-64
2021/12/16 09:54:49;;;;;;;70.85;10.40;;;;;;;;;;5051333;28;20202;-64
2021/12/16 09:57:17;;;;;;;73.75;13.85;;;;;;;;;;5054170;28;20237;-65
2021/12/16 09:59:45;;;;;;;73.82;11.93;;;;;;;;;;5062558;28;20224;-66
2021/12/16 10:02:15;;;;;;;73.68;10.05;;;;;;;;;;5075610;28;20299;-64
2021/12/16 10:04:43;;;;;;;71.40;10.50;;;;;;;;;;5075875;28;20236;-65
2021/12/16 10:07:14;;;;;;;74.18;12.35;;;;;;;;;;5075220;28;20205;-66
2021/12/16 10:09:41;;;;;;;72.15;9.50;;;;;;;;;;5075191;28;20731;-66
2021/12/16 10:12:13;;;;;;;70.07;10.02;;;;;;;;;;5075170;28;20205;-64
2021/12/16 10:17:28;;;;;;;71.85;10.35;;;;;;;;;;5074767;28;20208;-66
2021/12/16 10:19:56;;;;;;;69.40;10.00;;;;;;;;;;5075124;28;20314;-66
2021/12/16 10:22:29;;;;;;;69.70;10.07;;;;;;;;;;5075103;28;20201;-65
2021/12/16 10:24:57;;;;;;;79.63;10.45;;;;;;;;;;5074941;28;20705;-65
2021/12/16 10:27:26;;;;;;;67.05;9.48;;;;;;;;;;5074927;28;20296;-65
2021/12/16 10:29:54;;;;;;;67.85;9.65;;;;;;;;;;5074277;28;20232;-67
2021/12/16 10:32:36;;;;;;;71.03;10.02;;;;;;;;;;5054053;28;20301;-66
2021/12/16 10:35:05;;;;;;;72.07;9.00;;;;;;;;;;5055085;28;20241;-65
2021/12/16 10:37:35;;;;;;;67.13;9.05;;;;;;;;;;5054116;28;20215;-65
2021/12/16 10:40:21;;;;;;;69.22;8.80;;;;;;;;;;5054842;28;20227;-65
2021/12/16 10:42:48;;;;;;;68.85;9.68;;;;;;;;;;5055200;28;20296;-66
2021/12/16 10:45:26;;;;;;;72.38;10.05;;;;;;;;;;5054614;28;20738;-64
2021/12/16 10:48:13;;;;;;;68.38;10.20;;;;;;;;;;5054456;28;20205;-65
2021/12/16 10:50:54;;;;;;;69.47;9.38;;;;;;;;;;5054583;28;20233;-64
2021/12/16 10:53:36;;;;;;;71.40;10.27;;;;;;;;;;5054417;28;20202;-65
2021/12/16 10:56:05;;;;;;;72.10;10.63;;;;;;;;;;5054096;28;20211;-65
2021/12/16 10:58:48;;;;;;;67.47;8.93;;;;;;;;;;5054012;28;20583;-65
2021/12/16 11:01:36;;;;;;;66.60;9.50;;;;;;;;;;5053439;28;20467;-65
2021/12/16 11:04:04;;;;;;;70.67;11.27;;;;;;;;;;5068986;28;20231;-64
2021/12/16 11:06:33;;;;;;;72.10;9.27;;;;;;;;;;5073896;28;20460;-64
2021/12/16 11:09:15;;;;;;;69.43;9.43;;;;;;;;;;5072934;28;20518;-64
2021/12/16 11:11:43;;;;;;;67.90;9.32;;;;;;;;;;5073952;28;20211;-65
2021/12/16 11:14:10;;;;;;;68.85;10.05;;;;;;;;;;5073781;28;20292;-65
2021/12/16 11:16:38;;;;;;;69.88;9.95;;;;;;;;;;5074094;28;20201;-65
2021/12/16 11:19:06;;;;;;;72.60;10.80;;;;;;;;;;5073736;28;20212;-65
2021/12/16 11:21:39;;;;;;;70.45;9.38;;;;;;;;;;5074320;28;20245;-65
2021/12/16 11:24:22;;;;;;;69.90;10.50;;;;;;;;;;5074106;28;20229;-64
2021/12/16 11:26:51;;;;;;;68.00;9.30;;;;;;;;;;5073904;28;20673;-65
2021/12/16 11:29:18;;;;;;;70.50;10.27;;;;;;;;;;5073512;28;20228;-65
2021/12/16 11:31:47;;;;;;;68.37;8.47;;;;;;;;;;5073815;28;20456;-65
2021/12/16 11:34:15;;;;;;;71.57;8.40;;;;;;;;;;5055973;28;20453;-65
2021/12/16 11:36:43;;;;;;;73.82;11.40;;;;;;;;;;5053533;28;20471;-65
2021/12/16 11:39:12;;;;;;;76.20;10.73;;;;;;;;;;5052962;28;20204;-64
2021/12/16 11:41:40;;;;;;;72.55;10.52;;;;;;;;;;5053927;28;20455;-65
2021/12/16 11:44:12;;;;;;;71.90;9.70;;;;;;;;;;5053579;28;20227;-65
2021/12/16 11:46:41;;;;;;;75.47;11.57;;;;;;;;;;5053638;28;20459;-64
2021/12/16 11:49:11;;;;;;;69.15;10.10;;;;;;;;;;5053197;28;20457;-64
2021/12/16 11:51:39;;;;;;;68.83;11.07;;;;;;;;;;5053375;28;20202;-64
2021/12/16 11:54:08;;;;;;;69.20;8.80;;;;;;;;;;5053070;28;20951;-65
2021/12/16 11:56:38;;;;;;;69.97;10.87;;;;;;;;;;5053362;28;20452;-64
2021/12/16 11:59:05;;;;;;;68.97;9.90;;;;;;;;;;5052991;28;20589;-65
2021/12/16 12:01:36;;;;;;;66.88;9.18;;;;;;;;;;5053386;28;20450;-66
2021/12/16 12:04:04;;;;;;;70.47;9.47;;;;;;;;;;5051410;28;20313;-64
2021/12/16 12:06:32;;;;;;;68.30;10.10;;;;;;;;;;5053096;28;20453;-65
2021/12/16 12:09:01;;;;;;;71.78;11.13;;;;;;;;;;5052949;28;20548;-65
2021/12/16 12:11:29;;;;;;;70.80;10.97;;;;;;;;;;5053125;28;20214;-65
2021/12/16 12:13:57;;;;;;;73.20;11.47;;;;;;;;;;5052671;28;20452;-66
2021/12/16 12:16:27;;;;;;;72.60;11.30;;;;;;;;;;5052779;28;20533;-66
2021/12/16 12:18:57;;;;;;;70.67;10.07;;;;;;;;;;5051447;28;20523;-65
2021/12/16 12:21:29;;;;;;;69.57;9.67;;;;;;;;;;5052694;28;20450;-65
2021/12/16 12:23:57;;;;;;;70.27;10.70;;;;;;;;;;5052863;28;20930;-65
2021/12/16 12:26:25;;;;;;;70.88;9.75;;;;;;;;;;5052930;28;20447;-64
2021/12/16 12:28:53;;;;;;;74.80;11.10;;;;;;;;;;5052401;28;20211;-65
2021/12/16 12:31:22;;;;;;;70.00;10.30;;;;;;;;;;5051098;28;20544;-65
2021/12/16 12:33:49;;;;;;;71.43;10.93;;;;;;;;;;5052383;28;20455;-65
2021/12/16 12:36:19;;;;;;;73.43;11.17;;;;;;;;;;5058988;28;20685;-65
2021/12/16 12:38:47;;;;;;;71.67;11.57;;;;;;;;;;5071868;28;20454;-65
2021/12/16 12:41:14;;;;;;;70.10;9.77;;;;;;;;;;5072260;28;20553;-65
2021/12/16 12:43:41;;;;;;;71.57;11.93;;;;;;;;;;5072274;28;20452;-65
2021/12/16 12:46:12;;;;;;;68.67;8.10;;;;;;;;;;5072236;28;20549;-64
2021/12/16 12:51:45;;;;;;;71.60;11.00;;;;;;;;;;5058029;28;21006;-65
2021/12/16 12:54:27;;;;;;;71.20;10.10;;;;;;;;;;5052200;28;20446;-65
2021/12/16 12:56:56;;;;;;;69.20;9.57;;;;;;;;;;5051855;28;20548;-65
2021/12/16 12:59:33;;;;;;;67.63;9.83;;;;;;;;;;5051685;28;20485;-66
2021/12/16 13:02:00;;;;;;;70.60;9.70;;;;;;;;;;5052264;28;20456;-65
2021/12/16 13:04:29;;;;;;;67.83;9.13;;;;;;;;;;5051971;28;20521;-66
2021/12/16 13:07:01;;;;;;;73.33;10.87;;;;;;;;;;5051355;28;20534;-65
2021/12/16 13:09:45;;;;;;;81.17;13.80;;;;;;;;;;5071689;28;20560;-66
2021/12/16 13:12:34;;;;;;;72.83;10.30;;;;;;;;;;5072014;28;20448;-65
2021/12/16 13:15:10;;;;;;;68.30;9.40;;;;;;;;;;5071664;28;20526;-66
2021/12/16 13:23:32;;;;;;;70.87;9.47;;;;;;;;;;5071886;28;20428;-65
2021/12/16 13:28:59;;;;;;;72.60;11.97;;;;;;;;;;5071625;28;20418;-64
2021/12/16 13:31:35;;;;;;;73.00;11.20;;;;;;;;;;5071402;28;20481;-65
2021/12/16 13:34:02;;;;;;;70.77;10.83;;;;;;;;;;5071483;28;20449;-64
2021/12/16 13:36:42;;;;;;;69.87;10.13;;;;;;;;;;5071451;28;20496;-65
2021/12/16 13:39:13;;;;;;;68.73;8.97;;;;;;;;;;5069569;28;20486;-65
2021/12/16 13:41:53;;;;;;;69.43;10.03;;;;;;;;;;5071458;28;20443;-64
2021/12/16 13:44:36;;;;;;;68.70;10.00;;;;;;;;;;5071574;28;21076;-66
2021/12/16 13:47:09;;;;;;;69.57;9.87;;;;;;;;;;5071802;28;20488;-65
2021/12/16 13:58:59;;;;;;;66.93;8.90;;;;;;;;;;5071148;28;20801;-65
2021/12/16 14:01:37;;;;;;;67.27;9.33;;;;;;;;;;5070733;28;20452;-65
2021/12/16 14:04:37;;;;;;;68.53;10.03;;;;;;;;;;5071621;28;20824;-65
2021/12/16 14:07:26;;;;;;;69.83;10.57;;;;;;;;;;5071441;28;20485;-66
2021/12/16 14:10:00;;;;;;;67.77;9.50;;;;;;;;;;5071360;28;20483;-65
2021/12/16 14:15:43;;;;;;;66.07;9.07;;;;;;;;;;5045928;28;20434;-65
2021/12/16 14:22:57;;;;;;;78.13;13.63;;;;;;;;;;5070753;28;20453;-64
2021/12/16 14:24:13;;;;;;;68.50;9.60;;;;;;;;;;5071135;28;20499;-66
2021/12/16 14:26:50;;;;;;;67.63;9.03;;;;;;;;;;5071351;28;20449;-64
2021/12/16 14:35:19;;;;;;;69.67;10.57;;;;;;;;;;5028572;28;20432;-66
2021/12/16 14:38:03;;;;;;;68.90;9.00;;;;;;;;;;5028406;28;20464;-65
2021/12/16 14:40:50;;;;;;;70.97;9.90;;;;;;;;;;5028487;28;20467;-65
2021/12/16 14:43:36;;;;;;;66.27;9.23;;;;;;;;;;5027014;28;20657;-65
2021/12/16 14:46:07;;;;;;;68.87;9.60;;;;;;;;;;5032064;28;20497;-65
2021/12/16 14:48:36;;;;;;;73.13;12.10;;;;;;;;;;5031737;28;20457;-64
2021/12/16 14:51:06;;;;;;;70.60;10.70;;;;;;;;;;5032275;28;20931;-65
2021/12/16 14:53:35;;;;;;;77.57;14.27;;;;;;;;;;5032048;28;20465;-65
2021/12/16 14:56:05;;;;;;;75.10;12.47;;;;;;;;;;5031861;28;20442;-65
2021/12/16 14:58:32;;;;;;;70.33;10.27;;;;;;;;;;5032385;28;20482;-65
2021/12/16 15:01:01;;;;;;;69.17;9.90;;;;;;;;;;5032180;28;20474;-65
2021/12/16 15:03:33;;;;;;;72.27;10.77;;;;;;;;;;5032337;28;20516;-66
2021/12/16 15:06:01;;;;;;;71.80;10.13;;;;;;;;;;5051747;28;21070;-65
2021/12/16 15:08:35;;;;;;;74.13;11.20;;;;;;;;;;5074594;28;20449;-66
2021/12/16 15:11:03;;;;;;;71.17;11.20;;;;;;;;;;5074300;28;20470;-65
2021/12/16 15:13:36;;;;;;;71.70;11.20;;;;;;;;;;5072686;28;20831;-66
2021/12/16 15:16:25;;;;;;;68.00;10.20;;;;;;;;;;5073661;28;20447;-66
2021/12/16 15:39:00;;;;;;;69.97;9.70;;;;;;;;;;5048609;28;20202;-66
2021/12/16 15:44:12;;;;;;;70.32;10.10;;;;;;;;;;5073280;28;20262;-66
2021/12/16 15:46:41;;;;;;;71.07;9.75;;;;;;;;;;5055485;28;20856;-64
2021/12/16 15:49:09;;;;;;;65.60;8.43;;;;;;;;;;5053347;28;20292;-65
2021/12/16 15:51:37;;;;;;;67.03;8.30;;;;;;;;;;5053301;28;20292;-65
2021/12/16 15:54:06;;;;;;;70.63;10.75;;;;;;;;;;5052870;28;20861;-65
2021/12/16 15:56:35;;;;;;;71.72;9.65;;;;;;;;;;5053052;28;20208;-64
2021/12/16 15:59:06;;;;;;;66.15;9.02;;;;;;;;;;5052774;28;20296;-64
2021/12/16 16:01:34;;;;;;;66.72;8.38;;;;;;;;;;5053093;28;20208;-64
2021/12/16 16:04:02;;;;;;;66.38;9.60;;;;;;;;;;5052810;28;20212;-65
2021/12/16 16:06:30;;;;;;;70.15;10.23;;;;;;;;;;5053167;28;20229;-65
2021/12/16 16:09:00;;;;;;;69.18;9.88;;;;;;;;;;5052993;28;20296;-65
2021/12/16 16:11:29;;;;;;;69.47;9.38;;;;;;;;;;5053148;28;20703;-64
2021/12/16 16:13:59;;;;;;;70.07;11.45;;;;;;;;;;5052970;28;20237;-64
2021/12/16 16:16:31;;;;;;;70.00;10.63;;;;;;;;;;5056191;28;20197;-66
2021/12/16 16:19:00;;;;;;;70.95;10.07;;;;;;;;;;5072245;28;20308;-65
2021/12/16 16:21:29;;;;;;;76.65;10.50;;;;;;;;;;5073188;28;20201;-64
2021/12/16 16:24:04;;;;;;;75.00;12.85;;;;;;;;;;5072697;28;20211;-65
2021/12/16 16:26:33;;;;;;;74.97;16.02;;;;;;;;;;5072570;28;20225;-65
2021/12/16 16:29:02;;;;;;;78.45;16.15;;;;;;;;;;5072475;28;20204;-65
2021/12/16 16:31:30;;;;;;;71.78;14.23;;;;;;;;;;5072584;28;20292;-66
2021/12/16 16:33:58;;;;;;;70.32;10.77;;;;;;;;;;5072431;28;20302;-64
2021/12/16 16:36:28;;;;;;;72.57;12.35;;;;;;;;;;5072266;28;20236;-65
2021/12/16 16:38:57;;;;;;;72.32;11.38;;;;;;;;;;5072059;28;20201;-65
2021/12/16 16:41:25;;;;;;;77.78;12.40;;;;;;;;;;5072407;28;20212;-64
2021/12/16 16:43:57;;;;;;;71.35;12.25;;;;;;;;;;5071797;28;20204;-64
2021/12/16 16:46:30;;;;;;;72.65;10.40;;;;;;;;;;5072429;28;20232;-65
2021/12/16 16:49:05;;;;;;;73.03;11.82;;;;;;;;;;5055273;28;20202;-66
2021/12/16 16:51:33;;;;;;;71.93;10.30;;;;;;;;;;5052425;28;20292;-65
2021/12/16 16:54:03;;;;;;;72.00;11.90;;;;;;;;;;5052236;28;20213;-64
2021/12/16 16:56:42;;;;;;;71.68;11.65;;;;;;;;;;5052099;28;20208;-65
2021/12/16 16:59:11;;;;;;;72.85;11.60;;;;;;;;;;5051949;28;20292;-65
2021/12/16 17:01:39;;;;;;;74.20;12.00;;;;;;;;;;5052340;28;20213;-65
2021/12/16 17:04:07;;;;;;;74.82;11.73;;;;;;;;;;5051867;28;20206;-65
2021/12/16 17:06:35;;;;;;;76.20;11.68;;;;;;;;;;5051333;28;20222;-65
2021/12/16 17:09:02;;;;;;;73.68;10.68;;;;;;;;;;5051937;28;20297;-65
2021/12/16 17:11:31;;;;;;;71.90;11.63;;;;;;;;;;5052258;28;20209;-64
2021/12/16 17:14:08;;;;;;;68.97;12.00;;;;;;;;;;5051941;28;20241;-65
2021/12/16 17:19:23;;;;;;;91.63;19.65;;;;;;;;;;5058946;28;20233;-64
2021/12/16 17:21:52;;;;;;;96.90;23.90;;;;;;;;;;5071705;28;20209;-65
2021/12/16 17:24:21;;;;;;;91.90;21.77;;;;;;;;;;5071544;28;20204;-66
2021/12/16 17:26:50;;;;;;;85.63;16.90;;;;;;;;;;5071666;28;20236;-65